Time;durP1;ratioP1;P1;durP2;ratioP2;P2;SDS_P1;SDS_P2;PMS_P1;PMS_P2;Temp;Humidity;BMP_temperature;BMP_pressure;BME280_temperature;BME280_humidity;BME280_pressure;Samples;Min_cycle;Max_cycle;Signal;HPM_P1;HPM_P2
2021/06/03 00:02:19;;;;;;;12.90;10.38;;;22.00;67.70;;;;;;4967764;28;20023;-82
2021/06/03 00:04:45;;;;;;;12.43;11.07;;;21.90;67.60;;;;;;4967859;28;20070;-79
2021/06/03 00:07:13;;;;;;;11.20;10.10;;;21.90;67.60;;;;;;4966211;28;20082;-82
2021/06/03 00:09:40;;;;;;;11.05;9.98;;;21.90;67.70;;;;;;4977532;28;20042;-80
2021/06/03 00:12:07;;;;;;;11.82;10.45;;;21.90;67.80;;;;;;4982309;28;20027;-83
2021/06/03 00:14:33;;;;;;;11.23;10.15;;;21.90;67.90;;;;;;4967748;28;20186;-83
2021/06/03 00:16:59;;;;;;;12.50;10.48;;;21.80;67.70;;;;;;4966358;28;20471;-82
2021/06/03 00:19:25;;;;;;;11.52;10.43;;;21.70;67.60;;;;;;4967626;28;20031;-81
2021/06/03 00:21:51;;;;;;;11.60;10.23;;;21.70;67.60;;;;;;4966722;28;20418;-82
2021/06/03 00:24:17;;;;;;;12.75;9.82;;;21.70;67.80;;;;;;4950224;28;20031;-82
2021/06/03 00:26:43;;;;;;;11.63;10.40;;;21.70;67.80;;;;;;4966128;28;20050;-82
2021/06/03 00:29:11;;;;;;;11.48;10.27;;;21.60;67.70;;;;;;4966187;28;20042;-81
2021/06/03 00:31:37;;;;;;;10.43;9.38;;;21.60;67.80;;;;;;4966045;28;20037;-82
2021/06/03 00:34:03;;;;;;;11.60;10.38;;;21.60;67.90;;;;;;4967362;28;20502;-82
2021/06/03 00:36:29;;;;;;;11.02;9.98;;;21.60;67.90;;;;;;4967364;28;20023;-82
2021/06/03 00:38:55;;;;;;;11.65;9.13;;;21.60;68.00;;;;;;4970431;28;20101;-79
2021/06/03 00:41:21;;;;;;;11.32;10.20;;;21.50;67.90;;;;;;4970518;28;20058;-80
2021/06/03 00:43:47;;;;;;;11.50;10.40;;;21.50;67.90;;;;;;4970256;28;20493;-79
2021/06/03 00:46:14;;;;;;;10.13;9.18;;;21.40;67.80;;;;;;4953591;28;20027;-82
2021/06/03 00:48:40;;;;;;;11.20;10.13;;;21.40;67.90;;;;;;4969614;28;20078;-81
2021/06/03 00:51:08;;;;;;;10.68;9.68;;;21.40;68.00;;;;;;4954303;28;20030;-80
2021/06/03 00:53:38;;;;;;;10.75;9.65;;;21.30;67.90;;;;;;4970107;28;20023;-79
2021/06/03 00:56:05;;;;;;;10.95;9.95;;;21.30;67.90;;;;;;4970073;28;20063;-79
2021/06/03 00:58:35;;;;;;;10.30;9.30;;;21.20;67.80;;;;;;4970925;28;20034;-80
2021/06/03 01:01:03;;;;;;;10.68;9.45;;;21.20;67.80;;;;;;4970103;28;20029;-80
2021/06/03 01:03:30;;;;;;;10.57;9.57;;;21.20;68.00;;;;;;4953787;28;20035;-79
2021/06/03 01:06:07;;;;;;;11.40;10.40;;;21.10;67.90;;;;;;4970295;28;20030;-79
2021/06/03 01:08:49;;;;;;;9.70;8.85;;;21.10;68.00;;;;;;4969656;28;20047;-81
2021/06/03 01:11:28;;;;;;;10.70;9.70;;;21.10;68.10;;;;;;4970071;28;20030;-82
2021/06/03 01:14:15;;;;;;;9.73;8.75;;;21.10;68.10;;;;;;4970940;28;20122;-82
2021/06/03 01:16:42;;;;;;;10.50;9.40;;;21.00;68.00;;;;;;4971056;28;20031;-80
2021/06/03 01:19:12;;;;;;;10.35;9.40;;;21.00;68.00;;;;;;4953408;28;20026;-79
2021/06/03 01:22:04;;;;;;;10.13;9.13;;;21.00;68.00;;;;;;4953633;28;20058;-80
2021/06/03 01:24:37;;;;;;;11.27;10.05;;;20.90;67.90;;;;;;4966164;28;20054;-81
2021/06/03 01:27:13;;;;;;;10.25;9.25;;;20.90;67.80;;;;;;4971073;28;20379;-81
2021/06/03 01:30:09;;;;;;;9.57;8.65;;;20.90;68.00;;;;;;4969485;28;20398;-81
2021/06/03 01:32:40;;;;;;;11.60;10.50;;;20.80;67.80;;;;;;4967063;28;20030;-80
2021/06/03 01:35:16;;;;;;;13.60;9.60;;;20.80;67.80;;;;;;4969758;28;20478;-80
2021/06/03 01:37:46;;;;;;;9.93;8.93;;;20.80;68.00;;;;;;4972038;28;20034;-80
2021/06/03 01:40:14;;;;;;;10.48;9.20;;;20.80;68.00;;;;;;4971516;28;20066;-81
2021/06/03 01:42:43;;;;;;;9.85;8.85;;;20.70;67.80;;;;;;4970980;28;20027;-82
2021/06/03 01:45:09;;;;;;;10.93;9.82;;;20.70;67.90;;;;;;4970105;28;20034;-81
2021/06/03 01:47:36;;;;;;;10.52;9.13;;;20.70;68.00;;;;;;4972533;28;20401;-80
2021/06/03 01:50:05;;;;;;;10.73;9.45;;;20.60;67.90;;;;;;4974697;28;20450;-81
2021/06/03 01:52:32;;;;;;;10.50;9.50;;;20.60;68.00;;;;;;4957721;28;20037;-80
2021/06/03 01:55:00;;;;;;;10.70;9.80;;;20.50;67.80;;;;;;4973683;28;20026;-81
2021/06/03 01:57:26;;;;;;;10.00;9.02;;;20.50;67.90;;;;;;4973715;28;20054;-81
2021/06/03 02:00:11;;;;;;;11.38;10.30;;;20.50;68.00;;;;;;4973958;28;20042;-81
2021/06/03 02:02:46;;;;;;;9.80;8.70;;;20.50;68.00;;;;;;4973705;28;20390;-80
2021/06/03 02:05:14;;;;;;;10.57;9.52;;;20.40;67.90;;;;;;4973526;28;20035;-80
2021/06/03 02:07:40;;;;;;;10.85;9.48;;;20.40;68.00;;;;;;4973388;28;20034;-79
2021/06/03 02:10:07;;;;;;;10.80;9.73;;;20.40;68.00;;;;;;4974506;28;20097;-80
2021/06/03 02:12:45;;;;;;;11.60;9.60;;;20.30;67.90;;;;;;4974579;28;20031;-80
2021/06/03 02:15:16;;;;;;;10.63;9.25;;;20.30;68.00;;;;;;4973348;28;20034;-80
2021/06/03 02:17:47;;;;;;;10.43;8.88;;;20.30;68.00;;;;;;4973244;28;20528;-79
2021/06/03 02:20:17;;;;;;;9.55;8.75;;;20.30;68.10;;;;;;4973245;28;20027;-80
2021/06/03 02:22:48;;;;;;;10.98;9.82;;;20.30;68.10;;;;;;4973254;28;20185;-80
2021/06/03 02:25:17;;;;;;;11.65;10.27;;;20.20;68.00;;;;;;4973210;28;20031;-80
2021/06/03 02:27:43;;;;;;;10.63;9.63;;;20.20;68.00;;;;;;4974354;28;20476;-80
2021/06/03 02:30:12;;;;;;;10.32;9.32;;;20.20;68.00;;;;;;4974148;28;20525;-80
2021/06/03 02:32:41;;;;;;;10.50;9.48;;;20.20;68.10;;;;;;4973360;28;20034;-80
2021/06/03 02:35:10;;;;;;;11.32;10.07;;;20.20;68.10;;;;;;4956988;28;20386;-81
2021/06/03 02:37:38;;;;;;;9.50;8.60;;;20.20;68.10;;;;;;4956829;28;20035;-80
2021/06/03 02:40:28;;;;;;;10.00;9.10;;;20.20;68.10;;;;;;4972851;28;20115;-80
2021/06/03 02:42:57;;;;;;;10.88;9.77;;;20.10;68.10;;;;;;4974011;28;20476;-80
2021/06/03 02:45:28;;;;;;;11.38;9.68;;;20.10;68.00;;;;;;4973930;28;20390;-80
2021/06/03 02:47:56;;;;;;;10.65;9.60;;;20.10;68.10;;;;;;4972555;28;20058;-80
2021/06/03 02:50:26;;;;;;;14.77;10.77;;;20.10;68.10;;;;;;4972620;28;20039;-79
2021/06/03 02:52:56;;;;;;;12.57;10.32;;;20.00;68.00;;;;;;4973049;28;20027;-80
2021/06/03 02:55:25;;;;;;;12.23;10.57;;;20.00;68.00;;;;;;4956733;28;20057;-80
2021/06/03 02:57:56;;;;;;;10.82;9.73;;;20.00;68.00;;;;;;4972522;28;20030;-81
2021/06/03 03:00:30;;;;;;;9.93;8.93;;;20.00;68.00;;;;;;4956357;28;20478;-80
2021/06/03 03:02:58;;;;;;;11.20;10.18;;;20.00;68.10;;;;;;4972438;28;20122;-80
2021/06/03 03:05:25;;;;;;;13.20;9.90;;;19.90;68.00;;;;;;4972541;28;20062;-79
2021/06/03 03:07:51;;;;;;;11.32;10.23;;;19.90;68.00;;;;;;4973693;28;20118;-80
2021/06/03 03:10:20;;;;;;;11.73;10.10;;;19.90;68.00;;;;;;4973788;28;20038;-80
2021/06/03 03:12:48;;;;;;;11.35;10.27;;;19.90;68.10;;;;;;4972206;28;20130;-80
2021/06/03 03:15:15;;;;;;;11.27;10.23;;;19.90;68.10;;;;;;4956515;28;20114;-80
2021/06/03 03:17:43;;;;;;;12.75;11.32;;;19.80;67.90;;;;;;4972101;28;20121;-81
2021/06/03 03:20:12;;;;;;;11.80;10.52;;;19.80;67.90;;;;;;4973268;28;20067;-81
2021/06/03 03:22:41;;;;;;;11.93;10.80;;;19.80;68.00;;;;;;4973165;28;20080;-81
2021/06/03 03:25:10;;;;;;;12.65;10.63;;;19.80;68.00;;;;;;4971882;28;20033;-81
2021/06/03 03:27:38;;;;;;;11.93;10.77;;;19.70;67.90;;;;;;4972218;28;20509;-81
2021/06/03 03:30:07;;;;;;;12.50;11.20;;;19.80;68.10;;;;;;4973211;28;20047;-80
2021/06/03 03:32:34;;;;;;;11.48;10.27;;;19.70;67.90;;;;;;4973525;28;20496;-79
2021/06/03 03:35:01;;;;;;;12.30;11.10;;;19.70;67.90;;;;;;4971836;28;20082;-80
2021/06/03 03:37:29;;;;;;;13.48;10.98;;;19.70;68.00;;;;;;4971964;28;20410;-80
2021/06/03 03:39:59;;;;;;;12.05;10.85;;;19.70;68.00;;;;;;4973401;28;20458;-81
2021/06/03 03:42:25;;;;;;;12.98;11.27;;;19.60;68.00;;;;;;4973191;28;20035;-81
2021/06/03 03:44:52;;;;;;;14.25;11.85;;;19.60;67.90;;;;;;4972698;28;20241;-81
2021/06/03 03:47:19;;;;;;;14.15;12.80;;;19.60;67.90;;;;;;4971327;28;20042;-81
2021/06/03 03:49:46;;;;;;;12.32;11.07;;;19.60;68.00;;;;;;4955787;28;20050;-81
2021/06/03 03:52:16;;;;;;;12.85;11.65;;;19.60;68.00;;;;;;4971655;28;20093;-80
2021/06/03 03:54:42;;;;;;;13.90;11.35;;;19.60;68.00;;;;;;4972703;28;20042;-79
2021/06/03 03:57:09;;;;;;;14.55;11.93;;;19.50;67.90;;;;;;4971480;28;20482;-81
2021/06/03 03:59:37;;;;;;;14.45;12.45;;;19.50;67.90;;;;;;4971616;28;20022;-80
2021/06/03 04:02:03;;;;;;;14.20;12.70;;;19.50;67.90;;;;;;4971281;28;20049;-80
2021/06/03 04:04:30;;;;;;;12.30;11.07;;;19.40;67.80;;;;;;4971468;28;20205;-80
2021/06/03 04:06:57;;;;;;;19.95;12.88;;;19.40;67.80;;;;;;4971354;28;20034;-81
2021/06/03 04:09:24;;;;;;;13.60;12.30;;;19.40;67.80;;;;;;4971224;28;20054;-80
2021/06/03 04:11:51;;;;;;;13.85;12.52;;;19.40;67.80;;;;;;4971908;28;20031;-81
2021/06/03 04:14:17;;;;;;;13.10;11.80;;;19.40;67.90;;;;;;4971087;28;20054;-80
2021/06/03 04:16:45;;;;;;;12.93;11.60;;;19.40;67.90;;;;;;4955364;28;20030;-81
2021/06/03 04:19:11;;;;;;;14.20;12.82;;;19.40;67.90;;;;;;4970880;28;20399;-80
2021/06/03 04:21:39;;;;;;;13.68;12.38;;;19.30;67.70;;;;;;4971281;28;20023;-81
2021/06/03 04:24:06;;;;;;;14.23;12.82;;;19.30;67.70;;;;;;4972570;28;20026;-80
2021/06/03 04:26:34;;;;;;;13.60;12.40;;;19.30;67.80;;;;;;4972603;28;20107;-80
2021/06/03 04:29:01;;;;;;;14.07;12.68;;;19.30;67.80;;;;;;4971857;28;20069;-82
2021/06/03 04:31:27;;;;;;;15.35;12.35;;;19.20;67.60;;;;;;4972411;28;20034;-82
2021/06/03 04:33:53;;;;;;;14.85;13.45;;;19.20;67.70;;;;;;4972121;28;20495;-81
2021/06/03 04:36:19;;;;;;;13.98;12.68;;;19.30;67.80;;;;;;4972553;28;20073;-81
2021/06/03 04:38:45;;;;;;;14.63;12.77;;;19.20;67.70;;;;;;4971342;28;20034;-80
2021/06/03 04:41:11;;;;;;;12.80;11.55;;;19.20;67.70;;;;;;4970950;28;20035;-79
2021/06/03 04:43:37;;;;;;;16.13;13.75;;;19.20;67.70;;;;;;4970761;28;20537;-82
2021/06/03 04:46:04;;;;;;;14.30;12.82;;;19.10;67.50;;;;;;4971124;28;20027;-79
2021/06/03 04:48:30;;;;;;;13.73;12.43;;;19.10;67.50;;;;;;4966549;28;20406;-80
2021/06/03 04:50:57;;;;;;;14.93;11.43;;;19.10;67.60;;;;;;4968092;28;20122;-81
2021/06/03 04:53:23;;;;;;;12.90;11.63;;;19.10;67.60;;;;;;4968898;28;20042;-83
2021/06/03 04:55:49;;;;;;;14.32;12.82;;;19.10;67.70;;;;;;4969604;28;20399;-80
2021/06/03 04:58:15;;;;;;;13.20;11.80;;;19.00;67.50;;;;;;4969706;28;20279;-80
2021/06/03 05:00:43;;;;;;;17.40;12.00;;;19.00;67.50;;;;;;4966179;28;20027;-80
2021/06/03 05:03:10;;;;;;;13.25;11.95;;;19.00;67.60;;;;;;4956130;28;20379;-79
2021/06/03 05:05:38;;;;;;;13.38;12.02;;;19.00;67.70;;;;;;4966178;28;20031;-80
2021/06/03 05:08:05;;;;;;;17.00;12.75;;;18.90;67.60;;;;;;4967725;28;20047;-80
2021/06/03 05:10:31;;;;;;;13.02;11.63;;;18.90;67.60;;;;;;4967387;28;20031;-81
2021/06/03 05:12:58;;;;;;;14.27;12.85;;;18.90;67.60;;;;;;4967342;28;20026;-81
2021/06/03 05:15:25;;;;;;;13.90;12.43;;;18.80;67.40;;;;;;4950717;28;20501;-80
2021/06/03 05:17:53;;;;;;;15.23;13.68;;;18.80;67.40;;;;;;4967006;28;20023;-80
2021/06/03 05:20:21;;;;;;;14.57;12.95;;;18.80;67.40;;;;;;4967030;28;20486;-81
2021/06/03 05:22:50;;;;;;;16.05;13.05;;;18.80;67.40;;;;;;4967286;28;20031;-81
2021/06/03 05:25:19;;;;;;;12.55;11.40;;;18.80;67.50;;;;;;4970182;28;20031;-81
2021/06/03 05:27:45;;;;;;;13.82;12.25;;;18.80;67.50;;;;;;4970732;28;20082;-81
2021/06/03 05:30:13;;;;;;;15.57;13.07;;;18.70;67.40;;;;;;4970497;28;20035;-81
2021/06/03 05:32:40;;;;;;;12.57;11.35;;;18.70;67.40;;;;;;4970020;28;20069;-82
2021/06/03 05:35:11;;;;;;;15.90;12.85;;;18.70;67.40;;;;;;4970513;28;20045;-81
2021/06/03 05:37:37;;;;;;;14.13;12.52;;;18.70;67.40;;;;;;4970491;28;20139;-80
2021/06/03 05:40:04;;;;;;;14.98;12.52;;;18.70;67.40;;;;;;4954054;28;20078;-85
2021/06/03 05:42:31;;;;;;;16.15;14.30;;;18.70;67.50;;;;;;4969971;28;20031;-80
2021/06/03 05:44:57;;;;;;;16.85;14.68;;;18.70;67.80;;;;;;4969690;28;20035;-79
2021/06/03 05:47:23;;;;;;;20.13;15.68;;;18.70;68.00;;;;;;4965215;28;20105;-80
2021/06/03 05:49:49;;;;;;;18.52;14.57;;;18.70;68.30;;;;;;4952579;28;20542;-79
2021/06/03 05:52:15;;;;;;;19.90;15.65;;;18.80;68.70;;;;;;4969200;28;20065;-79
2021/06/03 05:54:42;;;;;;;18.10;15.30;;;18.80;69.00;;;;;;4970554;28;20038;-86
2021/06/03 05:57:08;;;;;;;15.18;13.52;;;18.80;69.20;;;;;;4953583;28;20434;-79
2021/06/03 05:59:35;;;;;;;15.95;13.85;;;18.80;69.40;;;;;;4970317;28;20031;-84
2021/06/03 06:02:06;;;;;;;15.57;12.75;;;18.90;69.70;;;;;;4969482;28;20043;-85
2021/06/03 06:07:02;;;;;;;18.83;14.02;;;19.00;69.10;;;;;;4970796;28;20031;-85
2021/06/03 06:09:27;;;;;;;15.88;13.20;;;19.00;68.70;;;;;;4970067;28;20046;-83
2021/06/03 06:11:53;;;;;;;14.90;11.73;;;18.90;68.20;;;;;;4969272;28;20026;-82
2021/06/03 06:14:20;;;;;;;13.45;11.82;;;19.00;68.10;;;;;;4953236;28;20090;-82
2021/06/03 06:16:46;;;;;;;15.35;12.88;;;18.90;68.00;;;;;;4968565;28;20061;-82
2021/06/03 06:19:12;;;;;;;15.00;13.32;;;18.90;68.30;;;;;;4970789;28;20043;-89
2021/06/03 06:21:38;;;;;;;17.70;12.98;;;19.00;69.20;;;;;;4969705;28;20422;-85
2021/06/03 06:24:05;;;;;;;14.43;13.02;;;19.00;68.90;;;;;;4961758;28;20492;-81
2021/06/03 06:26:33;;;;;;;12.82;11.65;;;19.00;69.00;;;;;;4958265;28;20039;-78
2021/06/03 06:28:59;;;;;;;14.95;13.43;;;19.00;69.00;;;;;;4965144;28;20073;-80
2021/06/03 06:31:25;;;;;;;14.63;12.57;;;19.00;69.10;;;;;;4964451;28;20268;-80
2021/06/03 06:33:51;;;;;;;13.45;12.05;;;19.00;69.10;;;;;;4968063;28;20038;-79
2021/06/03 06:36:17;;;;;;;13.55;11.95;;;19.10;69.40;;;;;;4957774;28;20033;-80
2021/06/03 06:38:43;;;;;;;15.95;11.70;;;19.00;69.20;;;;;;4966511;28;20506;-80
2021/06/03 06:41:11;;;;;;;13.40;12.18;;;19.00;69.10;;;;;;4967986;28;20122;-80
2021/06/03 06:43:38;;;;;;;15.07;11.60;;;19.10;69.30;;;;;;4967692;28;20031;-82
2021/06/03 06:46:05;;;;;;;12.35;11.15;;;19.10;69.20;;;;;;4966702;28;20046;-82
2021/06/03 06:48:32;;;;;;;12.52;11.10;;;19.10;69.20;;;;;;4967341;28;20133;-82
2021/06/03 06:50:59;;;;;;;13.05;11.52;;;19.10;69.10;;;;;;4969389;28;20027;-82
2021/06/03 06:53:28;;;;;;;12.73;11.45;;;19.10;69.10;;;;;;4969486;28;20081;-83
2021/06/03 06:55:54;;;;;;;12.32;11.02;;;19.10;69.10;;;;;;4968450;28;20473;-83
2021/06/03 06:58:21;;;;;;;14.88;10.82;;;19.10;69.00;;;;;;4970293;28;20390;-81
2021/06/03 07:00:48;;;;;;;11.23;10.20;;;19.20;69.10;;;;;;4968411;28;20565;-82
2021/06/03 07:03:15;;;;;;;11.93;10.65;;;19.20;69.10;;;;;;4969761;28;20070;-82
2021/06/03 07:05:45;;;;;;;11.50;10.45;;;19.20;69.00;;;;;;4968219;28;20030;-80
2021/06/03 07:08:11;;;;;;;11.63;10.57;;;19.30;69.10;;;;;;4951942;28;20381;-80
2021/06/03 07:10:37;;;;;;;12.00;10.68;;;19.30;69.00;;;;;;4951646;28;20043;-81
2021/06/03 07:13:03;;;;;;;13.13;10.85;;;19.40;69.10;;;;;;4951649;28;20034;-80
2021/06/03 07:15:29;;;;;;;12.30;11.10;;;19.40;69.00;;;;;;4952011;28;20041;-81
2021/06/03 07:17:56;;;;;;;10.98;9.95;;;19.50;69.10;;;;;;4969637;28;20085;-82
2021/06/03 07:20:22;;;;;;;12.50;11.32;;;19.60;69.10;;;;;;4968381;28;20479;-82
2021/06/03 07:22:54;;;;;;;11.45;10.20;;;19.70;69.10;;;;;;4967256;28;20030;-81
2021/06/03 07:25:23;;;;;;;11.18;10.15;;;19.80;69.20;;;;;;4969093;28;20034;-81
2021/06/03 07:27:50;;;;;;;11.20;10.05;;;19.90;69.10;;;;;;4967318;28;20046;-82
2021/06/03 07:30:19;;;;;;;11.55;10.35;;;19.90;68.90;;;;;;4968478;28;20094;-82
2021/06/03 07:32:45;;;;;;;10.65;9.65;;;19.90;68.80;;;;;;4967646;28;20056;-82
2021/06/03 07:35:13;;;;;;;11.52;10.52;;;20.00;68.90;;;;;;4951516;28;20027;-83
2021/06/03 07:37:41;;;;;;;9.70;8.75;;;20.10;69.00;;;;;;4968819;28;20516;-81
2021/06/03 07:40:10;;;;;;;10.77;9.52;;;20.20;69.10;;;;;;4968668;28;20479;-82
2021/06/03 07:42:36;;;;;;;10.02;9.13;;;20.20;68.90;;;;;;4951518;28;20057;-83
2021/06/03 07:45:06;;;;;;;10.85;9.75;;;20.30;68.90;;;;;;4967128;28;20033;-83
2021/06/03 07:47:32;;;;;;;10.25;9.30;;;20.40;68.90;;;;;;4968168;28;20514;-85
2021/06/03 07:49:58;;;;;;;10.50;9.35;;;20.50;68.90;;;;;;4967721;28;20038;-81
2021/06/03 07:52:25;;;;;;;10.02;8.90;;;20.60;68.90;;;;;;4968407;28;20045;-81
2021/06/03 07:54:50;;;;;;;8.82;8.02;;;20.60;68.70;;;;;;4967060;28;20030;-82
2021/06/03 07:57:16;;;;;;;9.77;8.40;;;20.70;68.80;;;;;;4967821;28;20482;-81
2021/06/03 07:59:42;;;;;;;8.68;7.90;;;20.90;69.00;;;;;;4968101;28;20031;-82
2021/06/03 08:02:09;;;;;;;9.93;8.20;;;21.00;68.90;;;;;;4967966;28;20038;-85
2021/06/03 08:04:35;;;;;;;9.65;8.43;;;21.10;68.80;;;;;;4968328;28;20031;-84
2021/06/03 08:07:02;;;;;;;9.82;8.25;;;21.20;68.60;;;;;;4950924;28;20041;-85
2021/06/03 08:09:29;;;;;;;8.75;7.95;;;21.30;68.50;;;;;;4968234;28;20307;-86
2021/06/03 08:11:55;;;;;;;8.38;7.53;;;21.30;68.40;;;;;;4966902;28;20033;-83
2021/06/03 08:14:21;;;;;;;8.13;7.30;;;21.30;68.30;;;;;;4967415;28;20520;-84
2021/06/03 08:16:47;;;;;;;8.35;7.55;;;21.40;68.40;;;;;;4967022;28;20037;-85
2021/06/03 08:19:15;;;;;;;10.40;8.15;;;21.50;68.40;;;;;;4967099;28;20034;-85
2021/06/03 08:21:41;;;;;;;8.43;7.25;;;21.70;68.60;;;;;;4951899;28;20031;-84
2021/06/03 08:24:07;;;;;;;9.95;7.03;;;21.80;69.00;;;;;;4968055;28;20537;-85
2021/06/03 08:26:33;;;;;;;8.77;7.35;;;22.00;68.50;;;;;;4966922;28;20031;-83
2021/06/03 08:28:59;;;;;;;8.25;7.43;;;22.10;68.40;;;;;;4970662;28;20221;-87
2021/06/03 08:31:26;;;;;;;9.80;7.30;;;22.30;68.30;;;;;;4967656;28;20054;-84
2021/06/03 08:33:53;;;;;;;7.35;6.45;;;22.40;68.10;;;;;;4968660;28;20394;-85
2021/06/03 08:36:23;;;;;;;9.35;6.57;;;22.50;68.00;;;;;;4951577;28;20030;-87
2021/06/03 08:38:49;;;;;;;7.85;6.43;;;22.60;67.90;;;;;;4967434;28;20199;-85
2021/06/03 08:41:16;;;;;;;7.75;6.25;;;22.70;67.90;;;;;;4966487;28;20057;-84
2021/06/03 08:43:42;;;;;;;7.57;6.75;;;22.80;67.80;;;;;;4969421;28;20069;-84
2021/06/03 08:46:08;;;;;;;7.18;6.45;;;22.80;67.60;;;;;;4969355;28;20065;-89
2021/06/03 08:48:34;;;;;;;8.20;6.32;;;22.80;67.50;;;;;;4953291;28;20047;-89
2021/06/03 08:51:04;;;;;;;8.93;6.57;;;22.80;67.30;;;;;;4952783;28;20038;-89
2021/06/03 08:53:31;;;;;;;7.88;6.40;;;22.80;67.30;;;;;;4950908;28;20031;-86
2021/06/03 08:58:45;;;;;;;6.20;5.60;;;22.90;67.50;;;;;;4967685;28;20031;-84
2021/06/03 09:01:12;;;;;;;7.28;5.13;;;23.00;67.50;;;;;;4955143;28;20042;-83
2021/06/03 09:03:39;;;;;;;6.43;5.35;;;23.10;67.40;;;;;;4955433;28;20505;-87
2021/06/03 09:06:06;;;;;;;6.03;5.35;;;23.20;67.30;;;;;;4971976;28;20277;-87
2021/06/03 09:08:38;;;;;;;6.57;5.35;;;23.30;67.30;;;;;;4971788;28;20101;-88
2021/06/03 09:11:05;;;;;;;6.40;5.82;;;23.30;67.00;;;;;;4955095;28;20034;-87
2021/06/03 09:13:37;;;;;;;6.20;5.65;;;23.40;67.00;;;;;;4972578;28;20035;-86
2021/06/03 09:16:09;;;;;;;5.30;4.80;;;23.40;66.90;;;;;;4955110;28;20062;-88
2021/06/03 09:18:53;;;;;;;6.18;5.57;;;23.50;67.00;;;;;;4954768;28;20034;-88
2021/06/03 09:21:24;;;;;;;9.50;5.93;;;23.50;66.80;;;;;;4966963;28;20027;-86
2021/06/03 09:24:01;;;;;;;5.30;4.80;;;23.60;66.80;;;;;;4971084;28;20039;-85
2021/06/03 09:26:36;;;;;;;5.53;4.95;;;23.50;66.50;;;;;;4971314;28;20069;-85
2021/06/03 09:29:04;;;;;;;6.35;5.53;;;23.50;66.50;;;;;;4970469;28;20133;-86
2021/06/03 09:31:38;;;;;;;5.95;5.05;;;23.40;66.40;;;;;;4972194;28;20035;-86
2021/06/03 09:34:08;;;;;;;5.78;5.18;;;23.30;66.20;;;;;;4971922;28;20037;-85
2021/06/03 09:36:39;;;;;;;6.55;5.05;;;23.30;66.30;;;;;;4972679;28;20074;-88
2021/06/03 09:39:07;;;;;;;4.72;4.18;;;23.30;66.30;;;;;;4956036;28;20502;-87
2021/06/03 09:41:36;;;;;;;4.80;4.15;;;23.30;66.30;;;;;;4971528;28;20561;-87
2021/06/03 09:44:19;;;;;;;6.05;5.15;;;23.40;66.30;;;;;;4955695;28;20035;-88
2021/06/03 09:46:49;;;;;;;5.75;4.97;;;23.40;66.50;;;;;;4956835;28;20490;-89
2021/06/03 09:49:19;;;;;;;5.30;4.80;;;23.30;65.90;;;;;;4972719;28;20388;-90
2021/06/03 09:51:47;;;;;;;5.00;4.47;;;23.40;66.10;;;;;;4954976;28;20200;-87
2021/06/03 09:54:15;;;;;;;4.35;3.95;;;23.40;66.00;;;;;;4955066;28;20034;-87
2021/06/03 09:56:45;;;;;;;4.68;4.20;;;23.40;66.00;;;;;;4970217;28;20058;-88
2021/06/03 09:59:35;;;;;;;4.75;4.35;;;23.40;65.90;;;;;;4970932;28;20129;-88
2021/06/03 10:02:09;;;;;;;7.38;4.43;;;23.40;65.90;;;;;;4955520;28;20103;-92
2021/06/03 10:04:42;;;;;;;5.40;4.32;;;23.50;66.10;;;;;;4971523;28;20027;-90
2021/06/03 10:07:28;;;;;;;4.87;4.10;;;23.50;65.90;;;;;;4956198;28;20081;-86
2021/06/03 10:09:58;;;;;;;4.85;3.72;;;23.60;65.90;;;;;;4956086;28;20058;-89
2021/06/03 10:12:27;;;;;;;4.53;4.13;;;23.60;65.80;;;;;;4953392;28;20937;-84
2021/06/03 10:14:54;;;;;;;4.55;3.78;;;23.60;65.80;;;;;;4969618;28;20514;-88
2021/06/03 10:17:32;;;;;;;4.97;4.30;;;23.60;65.80;;;;;;4954330;28;20118;-87
2021/06/03 10:20:11;;;;;;;4.85;4.35;;;23.70;65.80;;;;;;4970663;28;20039;-86
2021/06/03 10:22:44;;;;;;;3.60;3.28;;;23.80;65.80;;;;;;4953600;28;20112;-85
2021/06/03 10:25:30;;;;;;;5.40;4.10;;;23.90;65.90;;;;;;4952675;28;20054;-87
2021/06/03 10:28:05;;;;;;;4.38;3.97;;;24.00;65.90;;;;;;4969744;28;20356;-90
2021/06/03 10:30:40;;;;;;;5.88;3.63;;;24.20;66.00;;;;;;4970843;28;20050;-86
2021/06/03 10:33:15;;;;;;;4.85;3.95;;;24.40;66.00;;;;;;4970409;28;20031;-89
2021/06/03 10:35:43;;;;;;;4.25;3.67;;;24.50;66.00;;;;;;4972707;28;20031;-88
2021/06/03 10:38:11;;;;;;;5.40;3.38;;;24.70;66.10;;;;;;4953695;28;20031;-86
2021/06/03 10:40:46;;;;;;;3.63;3.33;;;24.90;66.20;;;;;;4970392;28;20061;-86
2021/06/03 10:43:13;;;;;;;4.57;3.83;;;25.20;66.10;;;;;;4968543;28;20221;-85
2021/06/03 10:45:41;;;;;;;4.70;3.50;;;25.40;65.70;;;;;;4969017;28;20505;-84
2021/06/03 10:48:07;;;;;;;4.57;3.88;;;25.60;65.50;;;;;;4968545;28;20074;-85
2021/06/03 10:50:40;;;;;;;3.35;3.05;;;25.80;65.30;;;;;;4952295;28;20049;-85
2021/06/03 10:53:16;;;;;;;6.28;4.07;;;26.00;65.00;;;;;;4968621;28;20113;-83
2021/06/03 10:55:45;;;;;;;5.03;3.88;;;26.10;64.80;;;;;;4968618;28;20505;-85
2021/06/03 10:58:14;;;;;;;5.28;3.83;;;26.20;64.60;;;;;;4968075;28;20026;-84
2021/06/03 11:00:46;;;;;;;6.35;5.20;;;26.30;64.40;;;;;;4967647;28;20034;-84
2021/06/03 11:03:16;;;;;;;5.20;4.15;;;26.40;64.30;;;;;;4951923;28;20621;-86
2021/06/03 11:05:48;;;;;;;5.00;4.60;;;26.40;64.20;;;;;;4955072;28;20042;-86
2021/06/03 11:08:35;;;;;;;4.97;4.47;;;26.50;64.10;;;;;;4970544;28;20034;-87
2021/06/03 11:11:14;;;;;;;8.70;4.82;;;26.70;64.00;;;;;;4970418;28;20057;-89
2021/06/03 11:13:46;;;;;;;6.15;4.72;;;26.90;63.80;;;;;;4957153;28;20034;-87
2021/06/03 11:16:23;;;;;;;6.43;4.85;;;27.10;63.50;;;;;;4949653;28;20286;-88
2021/06/03 11:18:49;;;;;;;10.05;4.75;;;27.30;62.20;;;;;;4960100;28;20031;-88
2021/06/03 11:21:37;;;;;;;7.35;4.32;;;27.40;61.80;;;;;;4968197;28;20031;-86
2021/06/03 11:24:06;;;;;;;6.90;3.92;;;27.60;61.50;;;;;;4969587;28;20034;-87
2021/06/03 11:26:39;;;;;;;4.32;3.83;;;27.80;61.30;;;;;;4969728;28;20031;-87
2021/06/03 11:29:11;;;;;;;6.65;4.88;;;27.90;60.80;;;;;;4954291;28;20039;-88
2021/06/03 11:31:39;;;;;;;6.15;3.75;;;28.00;60.70;;;;;;4969679;28;20362;-89
2021/06/03 11:34:17;;;;;;;8.70;4.45;;;28.10;60.70;;;;;;4953010;28;20027;-88
2021/06/03 11:36:55;;;;;;;5.70;3.95;;;28.30;60.50;;;;;;4969753;28;20089;-88
2021/06/03 11:39:33;;;;;;;5.28;3.40;;;28.60;60.20;;;;;;4970418;28;20051;-91
2021/06/03 11:42:29;;;;;;;6.38;3.47;;;28.80;59.90;;;;;;4953229;28;20031;-87
2021/06/03 11:45:44;;;;;;;4.18;3.47;;;29.00;59.70;;;;;;4934359;29;20562;-88
2021/06/03 11:48:18;;;;;;;4.82;3.50;;;29.10;59.50;;;;;;4917958;29;20142;-92
2021/06/03 11:50:53;;;;;;;4.20;3.65;;;29.30;59.20;;;;;;4932323;29;20113;-88
2021/06/03 11:53:22;;;;;;;3.40;3.10;;;29.40;59.00;;;;;;4944919;28;20030;-90
2021/06/03 11:55:50;;;;;;;4.00;2.97;;;29.50;59.10;;;;;;4950559;28;20034;-86
2021/06/03 11:58:16;;;;;;;3.30;2.92;;;29.60;58.90;;;;;;4967714;28;20509;-89
2021/06/03 12:00:45;;;;;;;3.53;2.97;;;29.80;58.70;;;;;;4936120;28;20050;-87
2021/06/03 12:03:26;;;;;;;3.83;2.90;;;29.90;58.40;;;;;;4967085;28;20035;-87
2021/06/03 12:05:55;;;;;;;5.85;3.22;;;30.00;58.30;;;;;;4952866;28;20058;-85
2021/06/03 12:08:47;;;;;;;4.03;3.35;;;30.10;58.20;;;;;;4968441;28;20077;-90
2021/06/03 12:11:15;;;;;;;4.78;2.78;;;30.40;58.10;;;;;;4969658;28;20047;-90
2021/06/03 12:13:43;;;;;;;3.92;3.00;;;30.60;57.80;;;;;;4952404;28;20035;-87
2021/06/03 12:16:09;;;;;;;3.00;2.33;;;31.00;57.70;;;;;;4966852;28;20514;-84
2021/06/03 12:18:42;;;;;;;4.20;2.80;;;31.30;57.40;;;;;;4966941;28;20057;-84
2021/06/03 12:21:12;;;;;;;4.43;3.17;;;31.40;56.90;;;;;;4968224;28;20266;-85
2021/06/03 12:23:53;;;;;;;4.57;2.65;;;31.50;56.70;;;;;;4967609;28;20364;-83
2021/06/03 12:26:22;;;;;;;5.18;2.65;;;31.60;56.60;;;;;;4967020;28;20073;-86
2021/06/03 12:28:48;;;;;;;3.72;2.47;;;31.60;56.60;;;;;;4966351;28;20056;-87
2021/06/03 12:31:26;;;;;;;3.13;2.13;;;31.60;56.60;;;;;;4968140;28;20042;-84
2021/06/03 12:33:54;;;;;;;2.72;2.35;;;31.60;56.60;;;;;;4967558;28;20045;-86
2021/06/03 12:36:20;;;;;;;3.55;2.53;;;31.70;56.60;;;;;;4969165;28;20022;-87
2021/06/03 12:38:52;;;;;;;3.85;2.78;;;31.70;56.40;;;;;;4967575;28;20146;-87
2021/06/03 12:41:24;;;;;;;4.60;2.67;;;31.80;56.30;;;;;;4967056;28;20089;-86
2021/06/03 12:43:57;;;;;;;2.45;1.95;;;31.80;56.20;;;;;;4966395;28;20395;-87
2021/06/03 12:46:37;;;;;;;;;;;31.70;56.30;;;;;;4968294;28;20035;-85
2021/06/03 12:49:15;;;;;;;2.97;2.03;;;31.70;56.70;;;;;;4967965;28;20066;-87
2021/06/03 12:51:59;;;;;;;5.15;2.08;;;31.60;56.50;;;;;;4967087;28;20503;-85
2021/06/03 12:54:36;;;;;;;3.80;2.15;;;31.60;56.50;;;;;;4966622;28;20031;-86
2021/06/03 12:57:07;;;;;;;3.80;2.17;;;31.50;56.50;;;;;;4950472;28;20121;-87